Latest Weather Observations for West Roebuck

IDW60801

Issued at 10:05 am WST Tuesday 29 July 2014 (issued every 30 minutes, with the page automatically refreshed every 10 minutes)

About weather observations | Map of weather stations | Latest weather observations for WA | Other Formats
Station Details ID: 003096 Name: WEST ROEBUCK Lat: -17.90 Lon: 122.31 Height: 32.0 m
Data from the previous 72 hours. | See also: Recent months for locations in Western Australia
Date/Time
WST
Temp
°C
App
Temp
°C
Dew
Point
Rel
Hum
%
Delta-T
°C
Wind Press
QNH
hPa
Press
MSL
hPa
Rain
since 9 am
mm
Dir
 
Spd
km/h
Gust
km/h
Spd
kts
Gust
kts
29/10:00am 30.1 - - - - E 17 24 9 13 - - 0.0
29/09:30am 28.8 - - - - ESE 15 22 8 12 - - 0.0
29/09:00am 27.0 - - - - E 15 22 8 12 - - 0.0
29/08:30am 26.0 - - - - E 15 26 8 14 - - 0.0
29/08:00am 25.4 - - - - E 15 22 8 12 - - 0.0
29/07:30am 22.2 - - - - E 9 15 5 8 - - 0.0
29/07:00am 20.8 - - - - E 11 15 6 8 - - 0.0
29/06:30am 20.4 - - - - E 11 13 6 7 - - 0.0
29/06:00am 20.0 - - - - E 11 15 6 8 - - 0.0
29/05:30am 20.1 - - - - E 11 13 6 7 - - 0.0
29/05:00am 20.0 - - - - E 11 13 6 7 - - 0.0
29/04:30am 19.9 - - - - ENE 9 13 5 7 - - 0.0
29/04:00am 19.9 - - - - ESE 11 13 6 7 - - 0.0
29/03:30am 20.6 - - - - ESE 9 11 5 6 - - 0.0
29/03:00am 19.4 - - - - ESE 7 9 4 5 - - 0.0
29/02:30am 18.8 - - - - ENE 7 9 4 5 - - 0.0
29/02:00am 18.8 - - - - ESE 7 7 4 4 - - 0.0
29/01:30am 19.1 - - - - E 7 9 4 5 - - 0.0
29/01:00am 19.0 - - - - NE 7 11 4 6 - - 0.0
29/12:30am 19.7 - - - - ENE 7 9 4 5 - - 0.0
29/12:00am 20.0 - - - - ESE 9 15 5 8 - - 0.0
 
Date/Time
WST
Temp
°C
App
Temp
°C
Dew
Point
Rel
Hum
%
Delta-T
°C
Wind Press
QNH
hPa
Press
MSL
hPa
Rain
since 9 am
mm
Dir
 
Spd
km/h
Gust
km/h
Spd
kts
Gust
kts
28/11:30pm 20.1 - - - - CALM 0 0 0 0 - - 0.0
28/11:00pm 20.1 - - - - N 4 7 2 4 - - 0.0
28/10:30pm 20.3 - - - - N 7 9 4 5 - - 0.0
28/10:00pm 20.5 - - - - ESE 4 9 2 5 - - 0.0
28/09:30pm 21.1 - - - - S 6 9 3 5 - - 0.0
28/09:00pm 20.9 - - - - N 9 11 5 6 - - 0.0
28/08:30pm 20.7 - - - - N 11 13 6 7 - - 0.0
28/08:00pm 20.9 - - - - SE 4 7 2 4 - - 0.0
28/07:30pm 20.9 - - - - NW 9 11 5 6 - - 0.0
28/07:00pm 21.0 - - - - NW 9 11 5 6 - - 0.0
28/06:30pm 22.1 - - - - NW 9 9 5 5 - - 0.0
28/06:00pm 23.3 - - - - WNW 9 11 5 6 - - 0.0
28/05:30pm 24.7 - - - - WNW 11 15 6 8 - - 0.0
28/05:00pm 25.8 - - - - WNW 13 17 7 9 - - 0.0
28/04:30pm 26.9 - - - - W 13 17 7 9 - - 0.0
28/04:00pm 27.2 - - - - W 17 20 9 11 - - 0.0
28/03:30pm 29.2 - - - - W 15 20 8 11 - - 0.0
28/03:00pm 30.0 - - - - W 17 24 9 13 - - 0.0
28/02:30pm 30.2 - - - - W 15 20 8 11 - - 0.0
28/02:00pm 32.8 - - - - ENE 17 24 9 13 - - 0.0
28/01:30pm 32.4 - - - - E 13 22 7 12 - - 0.0
28/01:00pm 33.7 - - - - E 20 28 11 15 - - 0.0
28/12:30pm 32.9 - - - - E 17 33 9 18 - - 0.0
28/12:00pm 33.0 - - - - ESE 15 24 8 13 - - 0.0
28/11:30am 32.7 - - - - SE 19 30 10 16 - - 0.0
28/11:00am 32.1 - - - - ESE 19 28 10 15 - - 0.0
28/10:30am 30.9 - - - - E 17 26 9 14 - - 0.0
28/10:00am 29.7 - - - - E 15 26 8 14 - - 0.0
28/09:30am 27.3 - - - - E 19 24 10 13 - - 0.0
28/09:00am 25.3 - - - - E 15 24 8 13 - - 0.0
28/08:30am 22.6 - - - - ESE 15 22 8 12 - - 0.0
28/08:00am 20.7 - - - - ESE 13 24 7 13 - - 0.0
28/07:30am 17.9 - - - - E 9 13 5 7 - - 0.0
28/07:00am 17.3 - - - - ESE 11 13 6 7 - - 0.0
28/06:30am 16.4 - - - - E 11 15 6 8 - - 0.0
28/06:00am 16.3 - - - - SE 13 15 7 8 - - 0.0
28/05:30am 15.5 - - - - ESE 13 15 7 8 - - 0.0
28/05:00am 14.9 - - - - ESE 9 13 5 7 - - 0.0
28/04:30am 15.2 - - - - E 9 11 5 6 - - 0.0
28/04:00am 14.7 - - - - E 7 9 4 5 - - 0.0
28/03:30am 15.6 - - - - ESE 9 13 5 7 - - 0.0
28/03:00am 14.7 - - - - SSE 7 9 4 5 - - 0.0
28/02:30am 17.1 - - - - SSE 9 11 5 6 - - 0.0
28/02:00am 16.8 - - - - S 9 11 5 6 - - 0.0
28/01:30am 14.8 - - - - S 7 9 4 5 - - 0.0
28/01:00am 14.9 - - - - CALM 0 4 0 2 - - 0.0
28/12:30am 17.1 - - - - ESE 9 13 5 7 - - 0.0
28/12:00am 16.9 - - - - ENE 7 9 4 5 - - 0.0
 
Date/Time
WST
Temp
°C
App
Temp
°C
Dew
Point
Rel
Hum
%
Delta-T
°C
Wind Press
QNH
hPa
Press
MSL
hPa
Rain
since 9 am
mm
Dir
 
Spd
km/h
Gust
km/h
Spd
kts
Gust
kts
27/11:30pm 16.7 - - - - ENE 7 9 4 5 - - 0.0
27/11:00pm 15.5 - - - - SW 9 11 5 6 - - 0.0
27/10:30pm 17.5 - - - - S 9 9 5 5 - - 0.0
27/10:00pm 18.4 - - - - SW 11 13 6 7 - - 0.0
27/09:30pm 16.2 - - - - SW 9 11 5 6 - - 0.0
27/09:00pm 17.3 - - - - SW 7 9 4 5 - - 0.0
27/08:30pm 16.4 - - - - NNW 2 7 1 4 - - 0.0
27/08:00pm 18.2 - - - - NW 7 9 4 5 - - 0.0
27/07:30pm 18.0 - - - - NNW 6 9 3 5 - - 0.0
27/07:00pm 18.4 - - - - NW 9 11 5 6 - - 0.0
27/06:30pm 20.1 - - - - W 9 11 5 6 - - 0.0
27/06:00pm 21.7 - - - - W 9 11 5 6 - - 0.0
27/05:30pm 24.6 - - - - WNW 7 9 4 5 - - 0.0
27/05:00pm 26.8 - - - - WNW 13 19 7 10 - - 0.0
27/04:30pm 29.0 - - - - WNW 15 20 8 11 - - 0.0
27/04:00pm 29.9 - - - - WNW 17 24 9 13 - - 0.0
27/03:30pm 30.3 - - - - WNW 20 32 11 17 - - 0.0
27/03:00pm 33.0 - - - - NE 9 20 5 11 - - 0.0
27/02:30pm 33.0 - - - - NE 13 24 7 13 - - 0.0
27/02:00pm 33.3 - - - - ENE 11 19 6 10 - - 0.0
27/01:30pm 33.0 - - - - NE 15 26 8 14 - - 0.0
27/01:00pm 32.8 - - - - ENE 15 32 8 17 - - 0.0
27/12:30pm 32.2 - - - - E 17 28 9 15 - - 0.0
27/12:00pm 32.3 - - - - NE 19 30 10 16 - - 0.0
27/11:30am 31.6 - - - - ENE 15 20 8 11 - - 0.0
27/11:00am 30.3 - - - - E 15 22 8 12 - - 0.0
27/10:30am 29.7 - - - - E 11 17 6 9 - - 0.0
27/10:00am 27.8 - - - - E 13 20 7 11 - - 0.0
27/09:30am 26.1 - - - - E 15 22 8 12 - - 0.0
27/09:00am 24.0 - - - - E 15 24 8 13 - - 0.0
27/08:30am 22.1 - - - - E 15 20 8 11 - - 0.0
27/08:00am 19.2 - - - - ESE 9 13 5 7 - - 0.0
27/07:30am 16.3 - - - - ESE 9 13 5 7 - - 0.0
27/07:00am 14.0 - - - - ESE 11 15 6 8 - - 0.0
27/06:30am 12.2 - - - - ESE 11 15 6 8 - - 0.0
27/06:00am 12.1 - - - - E 11 13 6 7 - - 0.0
27/05:30am 11.8 - - - - NE 9 11 5 6 - - 0.0
27/05:00am 12.5 - - - - NE 9 13 5 7 - - 0.0
27/04:30am 13.8 - - - - SSW 9 11 5 6 - - 0.0
27/04:00am 13.4 - - - - S 11 13 6 7 - - 0.0
27/03:30am 12.5 - - - - CALM 0 6 0 3 - - 0.0
27/03:00am 12.8 - - - - E 4 9 2 5 - - 0.0
27/02:30am 15.3 - - - - S 9 11 5 6 - - 0.0
27/02:00am 16.5 - - - - SSW 9 13 5 7 - - 0.0
27/01:30am 16.3 - - - - SSW 9 11 5 6 - - 0.0
27/01:00am 16.9 - - - - S 13 15 7 8 - - 0.0
27/12:30am 17.0 - - - - SW 11 13 6 7 - - 0.0
27/12:00am 17.4 - - - - SW 11 13 6 7 - - 0.0
 
Date/Time
WST
Temp
°C
App
Temp
°C
Dew
Point
Rel
Hum
%
Delta-T
°C
Wind Press
QNH
hPa
Press
MSL
hPa
Rain
since 9 am
mm
Dir
 
Spd
km/h
Gust
km/h
Spd
kts
Gust
kts
26/11:30pm 17.9 - - - - SW 11 15 6 8 - - 0.0
26/11:00pm 17.0 - - - - SW 9 13 5 7 - - 0.0
26/10:30pm 17.6 - - - - S 9 11 5 6 - - 0.0
26/10:00pm 18.1 - - - - SW 9 13 5 7 - - 0.0
26/09:30pm 18.6 - - - - SW 11 15 6 8 - - 0.0
26/09:00pm 18.8 - - - - SW 11 13 6 7 - - 0.0
26/08:30pm 18.3 - - - - WSW 9 11 5 6 - - 0.0
26/08:00pm 18.4 - - - - W 7 9 4 5 - - 0.0
26/07:30pm 18.3 - - - - NW 7 9 4 5 - - 0.0
26/07:00pm 18.5 - - - - NNW 9 11 5 6 - - 0.0
26/06:30pm 19.7 - - - - WNW 9 11 5 6 - - 0.0
26/06:00pm 21.2 - - - - NW 7 9 4 5 - - 0.0
26/05:30pm 23.1 - - - - WNW 9 13 5 7 - - 0.0
26/05:00pm 25.1 - - - - SSW 13 17 7 9 - - 0.0
26/04:30pm 26.5 - - - - WSW 13 22 7 12 - - 0.0
26/04:00pm 28.2 - - - - WSW 17 24 9 13 - - 0.0
26/03:30pm 31.2 - - - - SW 11 17 6 9 - - 0.0
26/03:00pm 32.3 - - - - N 11 17 6 9 - - 0.0
26/02:30pm 32.3 - - - - NE 11 20 6 11 - - 0.0
26/02:00pm 32.5 - - - - E 11 17 6 9 - - 0.0
26/01:30pm 32.4 - - - - NE 13 20 7 11 - - 0.0
26/01:00pm 32.2 - - - - ENE 9 15 5 8 - - 0.0
26/12:30pm 31.3 - - - - ENE 9 19 5 10 - - 0.0
26/12:00pm 30.3 - - - - ENE 15 20 8 11 - - 0.0
26/11:30am 30.5 - - - - ENE 13 24 7 13 - - 0.0
26/11:00am 29.2 - - - - E 13 24 7 13 - - 0.0
26/10:30am 28.7 - - - - E 17 24 9 13 - - 0.0

Other Formats:

Comma delimited format used in spreadsheet applications
http://www.bom.gov.au/fwo/IDW60801/IDW60801.95204.axf

JavaScript Object Notation format (JSON) in row-major order
http://www.bom.gov.au/fwo/IDW60801/IDW60801.95204.json